createdAt,value
2018-02-19T00:01:07.882Z,100015.33
2018-02-19T00:03:35.419Z,100006.67
2018-02-19T00:06:02.955Z,100007.52
2018-02-19T00:08:31.728Z,100008.75
2018-02-19T00:10:59.269Z,100009.91
2018-02-19T00:13:26.824Z,100006.91
2018-02-19T00:15:54.354Z,100011.25
2018-02-19T00:18:21.952Z,100005.42
2018-02-19T00:20:49.468Z,99994.06
2018-02-19T00:23:17.057Z,99995.72
2018-02-19T00:25:44.626Z,99995.30
2018-02-19T00:28:12.163Z,99987.55
2018-02-19T00:30:39.720Z,99992.66
2018-02-19T00:33:07.240Z,99993.00
2018-02-19T00:35:35.040Z,99990.84
2018-02-19T00:38:02.586Z,99984.41
2018-02-19T00:40:30.145Z,99978.78
2018-02-19T00:42:57.677Z,99977.95
2018-02-19T00:45:25.231Z,99972.72
2018-02-19T00:47:52.757Z,99964.53
2018-02-19T00:50:20.335Z,99967.95
2018-02-19T00:52:47.856Z,99970.42
2018-02-19T00:55:15.375Z,99967.44
2018-02-19T00:57:42.954Z,99972.31
2018-02-19T01:00:10.483Z,99968.35
2018-02-19T01:02:38.044Z,99968.66
2018-02-19T01:05:05.608Z,99969.50
2018-02-19T01:07:33.172Z,99969.08
2018-02-19T01:10:00.695Z,99965.11
2018-02-19T01:12:28.266Z,99960.59
2018-02-19T01:14:55.798Z,99957.88
2018-02-19T01:17:23.320Z,99949.13
2018-02-19T01:19:50.867Z,99955.14
2018-02-19T01:22:18.412Z,99953.36
2018-02-19T01:24:45.975Z,99946.13
2018-02-19T01:27:13.519Z,99935.59
2018-02-19T01:29:41.089Z,99935.09
2018-02-19T01:32:08.642Z,99936.38
2018-02-19T01:34:36.201Z,99933.81
2018-02-19T01:37:03.739Z,99942.81
2018-02-19T01:39:31.264Z,99935.74
2018-02-19T01:41:58.828Z,99928.84
2018-02-19T01:44:26.352Z,99924.88
2018-02-19T01:46:53.929Z,99921.80
2018-02-19T01:49:21.451Z,99907.98
2018-02-19T01:51:49.014Z,99913.20
2018-02-19T01:54:16.570Z,99911.88
2018-02-19T01:56:44.150Z,99900.84
2018-02-19T01:59:11.769Z,99903.63
2018-02-19T02:01:39.288Z,99902.33
2018-02-19T02:04:06.868Z,99906.23
2018-02-19T02:06:35.419Z,99909.66
2018-02-19T02:09:02.981Z,99893.66
2018-02-19T02:11:30.500Z,99893.45
2018-02-19T02:13:58.050Z,99885.97
2018-02-19T02:16:25.600Z,99892.34
2018-02-19T02:18:53.185Z,99894.37
2018-02-19T02:21:20.702Z,99890.58
2018-02-19T02:23:48.238Z,99895.16
2018-02-19T02:26:15.797Z,99883.09
2018-02-19T02:28:43.329Z,99878.36
2018-02-19T02:31:10.894Z,99888.75
2018-02-19T02:33:38.418Z,99888.33
2018-02-19T02:36:05.981Z,99886.94
2018-02-19T02:38:33.492Z,99883.46
2018-02-19T02:41:01.056Z,99875.70
2018-02-19T02:43:28.572Z,99875.68
2018-02-19T02:45:56.135Z,99870.09
2018-02-19T02:48:23.669Z,99871.84
2018-02-19T02:50:51.212Z,99872.66
2018-02-19T02:53:18.775Z,99870.60
2018-02-19T02:55:46.305Z,99872.02
2018-02-19T02:58:13.892Z,99865.77
2018-02-19T03:00:41.431Z,99871.50
2018-02-19T03:03:08.999Z,99863.23
2018-02-19T03:05:36.528Z,99854.67
2018-02-19T03:08:04.111Z,99855.44
2018-02-19T03:10:31.629Z,99859.52
2018-02-19T03:12:59.183Z,99847.32
2018-02-19T03:15:26.782Z,99838.72
2018-02-19T03:17:54.324Z,99844.30
2018-02-19T03:20:21.890Z,99838.72
2018-02-19T03:22:49.421Z,99849.53
2018-02-19T03:25:17.009Z,99840.45
2018-02-19T03:27:44.548Z,99836.50
2018-02-19T03:30:12.132Z,99827.39
2018-02-19T03:32:39.651Z,99828.91
2018-02-19T03:35:07.190Z,99824.91
2018-02-19T03:37:35.078Z,99824.42
2018-02-19T03:40:02.600Z,99811.98
2018-02-19T03:42:30.166Z,99822.72
2018-02-19T03:44:57.684Z,99825.41
2018-02-19T03:47:25.253Z,99825.23
2018-02-19T03:49:52.769Z,99816.00
2018-02-19T03:52:20.322Z,99820.98
2018-02-19T03:54:47.840Z,99827.81
2018-02-19T03:57:15.424Z,99821.81
2018-02-19T03:59:42.944Z,99817.31
2018-02-19T04:02:10.499Z,99818.22
2018-02-19T04:04:38.059Z,99820.75
2018-02-19T04:07:06.237Z,99827.06
2018-02-19T04:09:33.800Z,99800.10
2018-02-19T04:12:01.393Z,99823.73
2018-02-19T04:14:28.960Z,99814.30
2018-02-19T04:16:56.498Z,99825.47
2018-02-19T04:19:24.049Z,99828.38
2018-02-19T04:21:51.573Z,99814.20
2018-02-19T04:24:19.132Z,99826.26
2018-02-19T04:26:46.690Z,99820.93
2018-02-19T04:29:14.245Z,99826.19
2018-02-19T04:31:41.809Z,99819.56
2018-02-19T04:34:09.335Z,99814.73
2018-02-19T04:36:36.892Z,99794.06
2018-02-19T04:39:04.428Z,99812.50
2018-02-19T04:41:31.987Z,99809.98
2018-02-19T04:43:59.518Z,99819.55
2018-02-19T04:46:27.845Z,99812.41
2018-02-19T04:48:55.378Z,99812.25
2018-02-19T04:51:22.903Z,99816.50
2018-02-19T04:53:50.446Z,99807.11
2018-02-19T04:56:17.976Z,99807.92
2018-02-19T04:58:45.528Z,99816.81
2018-02-19T05:01:13.055Z,99807.03
2018-02-19T05:03:40.599Z,99805.72
2018-02-19T05:06:08.217Z,99803.52
2018-02-19T05:08:36.479Z,99770.60
2018-02-19T05:11:04.015Z,99801.95
2018-02-19T05:13:31.590Z,99808.16
2018-02-19T05:15:59.112Z,99803.22
2018-02-19T05:18:26.644Z,99802.28
2018-02-19T05:20:54.195Z,99795.51
2018-02-19T05:23:21.712Z,99794.11
2018-02-19T05:25:49.271Z,99797.10
2018-02-19T05:28:16.812Z,99797.55
2018-02-19T05:30:44.358Z,99802.20
2018-02-19T05:33:11.913Z,99800.12
2018-02-19T05:35:39.567Z,99789.84
2018-02-19T05:38:07.088Z,99799.72
2018-02-19T05:40:34.690Z,99785.23
2018-02-19T05:43:02.248Z,99786.22
2018-02-19T05:45:29.777Z,99790.66
2018-02-19T05:47:57.333Z,99792.89
2018-02-19T05:50:24.850Z,99789.13
2018-02-19T05:52:52.557Z,99792.52
2018-02-19T05:55:20.235Z,99786.92
2018-02-19T05:57:47.796Z,99785.93
2018-02-19T06:00:15.342Z,99776.95
2018-02-19T06:02:42.914Z,99776.53
2018-02-19T06:05:10.444Z,99783.81
2018-02-19T06:07:37.965Z,99787.55
2018-02-19T06:10:05.582Z,99774.63
2018-02-19T06:12:33.198Z,99773.97
2018-02-19T06:15:00.812Z,99776.11
2018-02-19T06:17:28.331Z,99773.22
2018-02-19T06:19:55.889Z,99772.73
2018-02-19T06:22:23.403Z,99781.34
2018-02-19T06:24:53.284Z,99788.13
2018-02-19T06:27:21.108Z,99774.00
2018-02-19T06:29:48.710Z,99777.01
2018-02-19T06:32:16.263Z,99764.24
2018-02-19T06:34:43.788Z,99789.08
2018-02-19T06:37:11.353Z,99783.12
2018-02-19T06:39:38.867Z,99799.59
2018-02-19T06:42:06.885Z,99764.28
2018-02-19T06:44:34.414Z,99794.52
2018-02-19T06:47:01.976Z,99776.34
2018-02-19T06:49:29.490Z,99782.28
2018-02-19T06:51:57.033Z,99790.32
2018-02-19T06:54:24.616Z,99772.35
2018-02-19T06:56:52.212Z,99757.16
2018-02-19T06:59:19.732Z,99760.91
2018-02-19T07:01:47.250Z,99761.76
2018-02-19T07:04:14.806Z,99746.48
2018-02-19T07:06:42.341Z,99759.30
2018-02-19T07:09:09.899Z,99773.13
2018-02-19T07:11:37.423Z,99776.13
2018-02-19T07:14:04.972Z,99774.47
2018-02-19T07:16:32.488Z,99761.53
2018-02-19T07:19:00.053Z,99773.97
2018-02-19T07:21:27.580Z,99791.39
2018-02-19T07:23:55.156Z,99791.98
2018-02-19T07:26:22.684Z,99788.28
2018-02-19T07:28:50.268Z,99763.75
2018-02-19T07:31:17.783Z,99762.57
2018-02-19T07:33:45.297Z,99762.20
2018-02-19T07:36:12.871Z,99765.39
2018-02-19T07:38:40.395Z,99767.91
2018-02-19T07:41:07.952Z,99760.38
2018-02-19T07:43:35.474Z,99764.50
2018-02-19T07:46:03.035Z,99755.44
2018-02-19T07:48:30.584Z,99753.50
2018-02-19T07:50:58.144Z,99768.81
2018-02-19T07:53:25.660Z,99771.38
2018-02-19T07:55:53.220Z,99759.84
2018-02-19T07:58:20.744Z,99749.87
2018-02-19T08:00:48.329Z,99759.08
2018-02-19T08:03:15.868Z,99757.13
2018-02-19T08:05:43.418Z,99756.23
2018-02-19T08:08:10.967Z,99754.67
2018-02-19T08:10:38.510Z,99753.88
2018-02-19T08:13:06.209Z,99748.06
2018-02-19T08:15:33.743Z,99741.45
2018-02-19T08:18:01.321Z,99746.21
2018-02-19T08:20:28.839Z,99733.17
2018-02-19T08:22:56.390Z,99740.86
2018-02-19T08:25:23.926Z,99743.02
2018-02-19T08:27:51.491Z,99733.17
2018-02-19T08:30:19.075Z,99723.72
2018-02-19T08:32:46.614Z,99726.13
2018-02-19T08:35:14.173Z,99716.63
2018-02-19T08:37:41.704Z,99724.73
2018-02-19T08:40:09.255Z,99728.16
2018-02-19T08:42:37.358Z,99718.50
2018-02-19T08:45:04.917Z,99716.17
2018-02-19T08:47:32.493Z,99709.91
2018-02-19T08:50:00.037Z,99712.54
2018-02-19T08:52:27.572Z,99713.47
2018-02-19T08:54:55.134Z,99715.39
2018-02-19T08:57:22.648Z,99706.06
2018-02-19T08:59:50.191Z,99710.09
2018-02-19T09:02:17.716Z,99716.52
2018-02-19T09:04:45.260Z,99706.45
2018-02-19T09:07:12.794Z,99700.97
2018-02-19T09:09:40.380Z,99693.82
2018-02-19T09:12:07.937Z,99691.69
2018-02-19T09:14:35.515Z,99702.92
2018-02-19T09:17:03.036Z,99710.80
2018-02-19T09:19:30.580Z,99707.62
2018-02-19T09:21:58.124Z,99694.28
2018-02-19T09:24:25.640Z,99696.37
2018-02-19T09:26:53.371Z,99695.34
2018-02-19T09:29:20.907Z,99694.79
2018-02-19T09:31:48.430Z,99695.54
2018-02-19T09:34:15.984Z,99688.47
2018-02-19T09:36:43.508Z,99687.46
2018-02-19T09:39:11.060Z,99685.96
2018-02-19T09:41:38.611Z,99683.92
2018-02-19T09:44:06.144Z,99674.40
2018-02-19T09:46:33.668Z,99678.95
2018-02-19T09:49:01.223Z,99676.33
2018-02-19T09:51:28.748Z,99679.83
2018-02-19T09:53:56.304Z,99674.19
2018-02-19T09:56:23.836Z,99670.12
2018-02-19T09:58:51.404Z,99672.92
2018-02-19T10:01:18.959Z,99676.29
2018-02-19T10:03:46.558Z,99669.33
2018-02-19T10:06:14.088Z,99673.91
2018-02-19T10:08:41.630Z,99672.75
2018-02-19T10:11:09.216Z,99683.19
2018-02-19T10:13:36.751Z,99673.63
2018-02-19T10:16:04.322Z,99665.70
2018-02-19T10:18:31.854Z,99675.77
2018-02-19T10:20:59.422Z,99657.61
2018-02-19T10:23:26.942Z,99667.53
2018-02-19T10:25:54.518Z,99669.32
2018-02-19T10:28:22.040Z,99678.74
2018-02-19T10:30:49.595Z,99664.34
2018-02-19T10:33:17.110Z,99661.61
2018-02-19T10:35:44.659Z,99661.55
2018-02-19T10:38:12.183Z,99659.09
2018-02-19T10:40:39.710Z,99664.67
2018-02-19T10:43:07.268Z,99664.56
2018-02-19T10:45:34.795Z,99675.52
2018-02-19T10:48:02.351Z,99668.95
2018-02-19T10:50:29.872Z,99680.42
2018-02-19T10:52:57.433Z,99671.45
2018-02-19T10:55:24.953Z,99672.10
2018-02-19T10:57:52.528Z,99663.42
2018-02-19T11:00:25.552Z,99656.35
2018-02-19T11:02:53.132Z,99650.44
2018-02-19T11:05:20.654Z,99650.31
2018-02-19T11:07:48.171Z,99659.98
2018-02-19T11:10:15.723Z,99661.07
2018-02-19T11:12:43.252Z,99651.73
2018-02-19T11:15:10.843Z,99650.34
2018-02-19T11:17:38.702Z,99638.27
2018-02-19T11:20:06.274Z,99638.69
2018-02-19T11:22:33.796Z,99650.35
2018-02-19T11:25:01.389Z,99644.28
2018-02-19T11:27:28.913Z,99632.50
2018-02-19T11:29:56.488Z,99634.14
2018-02-19T11:32:24.007Z,99622.19
2018-02-19T11:34:51.592Z,99625.50
2018-02-19T11:37:19.121Z,99628.13
2018-02-19T11:39:46.650Z,99632.05
2018-02-19T11:42:14.199Z,99623.72
2018-02-19T11:44:41.728Z,99629.69
2018-02-19T11:47:09.281Z,99627.52
2018-02-19T11:49:36.801Z,99612.63
2018-02-19T11:52:04.355Z,99605.55
2018-02-19T11:54:31.911Z,99603.43
2018-02-19T11:56:59.490Z,99600.41
2018-02-19T11:59:27.013Z,99602.94
2018-02-19T12:01:54.536Z,99607.58
2018-02-19T12:04:22.099Z,99594.49
2018-02-19T12:06:49.619Z,99598.20
2018-02-19T12:09:17.189Z,99601.29
2018-02-19T12:11:44.723Z,99589.11
2018-02-19T12:14:12.309Z,99583.36
2018-02-19T12:16:39.830Z,99594.61
2018-02-19T12:19:07.355Z,99591.80
2018-02-19T12:21:34.915Z,99586.02
2018-02-19T12:24:02.428Z,99577.83
2018-02-19T12:26:30.004Z,99583.34
2018-02-19T12:28:57.536Z,99569.75
2018-02-19T12:31:25.087Z,99567.99
2018-02-19T12:33:52.630Z,99570.70
2018-02-19T12:36:20.846Z,99567.23
2018-02-19T12:38:48.376Z,99557.44
2018-02-19T12:41:15.979Z,99549.84
2018-02-19T12:43:43.550Z,99549.40
2018-02-19T12:46:11.360Z,99545.80
2018-02-19T12:48:39.261Z,99549.49
2018-02-19T12:51:06.815Z,99553.80
2018-02-19T12:53:34.371Z,99539.56
2018-02-19T12:56:01.941Z,99538.11
2018-02-19T12:58:29.498Z,99539.04
2018-02-19T13:00:57.024Z,99533.83
2018-02-19T13:03:24.975Z,99546.70
2018-02-19T13:05:52.697Z,99544.33
2018-02-19T13:08:20.247Z,99542.97
2018-02-19T13:10:47.821Z,99535.11
2018-02-19T13:13:15.359Z,99543.63
2018-02-19T13:15:42.911Z,99533.29
2018-02-19T13:18:10.488Z,99534.20
2018-02-19T13:20:38.064Z,99537.67
2018-02-19T13:23:05.596Z,99541.72
2018-02-19T13:25:33.167Z,99539.77
2018-02-19T13:28:00.736Z,99544.80
2018-02-19T13:30:28.272Z,99535.84
2018-02-19T13:32:55.830Z,99526.95
2018-02-19T13:35:23.351Z,99530.41
2018-02-19T13:37:50.925Z,99525.62
2018-02-19T13:40:18.468Z,99519.89
2018-02-19T13:42:46.041Z,99504.95
2018-02-19T13:45:13.560Z,99511.02
2018-02-19T13:47:41.131Z,99508.59
2018-02-19T13:50:08.668Z,99499.09
2018-02-19T13:52:36.247Z,99490.63
2018-02-19T13:55:03.781Z,99496.03
2018-02-19T13:57:31.299Z,99491.88
2018-02-19T13:59:58.881Z,99498.22
2018-02-19T14:02:26.449Z,99496.36
2018-02-19T14:04:54.004Z,99494.48
2018-02-19T14:07:21.686Z,99486.49
2018-02-19T14:09:50.087Z,99490.34
2018-02-19T14:12:18.757Z,99486.83
2018-02-19T14:14:46.598Z,99492.47
2018-02-19T14:17:14.602Z,99481.98
2018-02-19T14:19:42.327Z,99485.45
2018-02-19T14:22:10.550Z,99480.69
2018-02-19T14:24:38.096Z,99492.47
2018-02-19T14:27:05.668Z,99482.56
2018-02-19T14:29:33.208Z,99482.59
2018-02-19T14:32:00.780Z,99481.77
2018-02-19T14:34:28.843Z,99475.42
2018-02-19T14:36:56.506Z,99482.22
2018-02-19T14:39:24.096Z,99477.86
2018-02-19T14:41:51.992Z,99472.58
2018-02-19T14:44:19.515Z,99475.92
2018-02-19T14:46:47.525Z,99482.23
2018-02-19T14:49:15.173Z,99477.28
2018-02-19T14:51:45.928Z,99474.86
2018-02-19T14:54:15.948Z,99470.69
2018-02-19T14:56:44.755Z,99472.31
2018-02-19T14:59:14.492Z,99469.79
2018-02-19T15:01:42.284Z,99477.73
2018-02-19T15:04:12.209Z,99473.19
2018-02-19T15:06:43.549Z,99476.34
2018-02-19T15:09:12.040Z,99471.30
2018-02-19T15:11:39.607Z,99467.55
2018-02-19T15:14:08.940Z,99474.36
2018-02-19T15:16:38.320Z,99471.48
2018-02-19T15:19:08.493Z,99469.75
2018-02-19T15:21:38.772Z,99471.76
2018-02-19T15:24:06.715Z,99472.34
2018-02-19T15:26:35.818Z,99478.10
2018-02-19T15:29:04.524Z,99484.09
2018-02-19T15:31:34.412Z,99478.06
2018-02-19T15:34:04.191Z,99479.58
2018-02-19T15:36:32.287Z,99474.72
2018-02-19T15:39:01.539Z,99472.08
2018-02-19T15:41:31.396Z,99468.39
2018-02-19T15:44:02.080Z,99476.20
2018-02-19T15:46:30.848Z,99469.89
2018-02-19T15:48:58.973Z,99477.91
2018-02-19T15:51:27.455Z,99474.55
2018-02-19T15:53:55.371Z,99473.14
2018-02-19T15:56:23.612Z,99479.00
2018-02-19T15:58:51.455Z,99468.23
2018-02-19T16:01:18.987Z,99467.67
2018-02-19T16:03:46.960Z,99467.28
2018-02-19T16:06:14.667Z,99458.00
2018-02-19T16:08:42.464Z,99459.70
2018-02-19T16:11:10.152Z,99464.47
2018-02-19T16:13:37.911Z,99460.50
2018-02-19T16:16:06.220Z,99456.91
2018-02-19T16:18:34.020Z,99464.18
2018-02-19T16:21:05.347Z,99453.38
2018-02-19T16:23:33.221Z,99457.36
2018-02-19T16:26:01.163Z,99462.38
2018-02-19T16:28:29.440Z,99453.69
2018-02-19T16:30:57.660Z,99446.16
2018-02-19T16:33:25.835Z,99453.44
2018-02-19T16:35:54.595Z,99457.07
2018-02-19T16:38:23.089Z,99447.91
2018-02-19T16:40:51.074Z,99458.48
2018-02-19T16:43:18.827Z,99457.08
2018-02-19T16:45:52.936Z,99445.41
2018-02-19T16:48:31.909Z,99450.63
2018-02-19T16:51:04.100Z,99450.08
2018-02-19T16:53:32.979Z,99444.97
2018-02-19T16:56:02.937Z,99447.37
2018-02-19T16:58:31.399Z,99441.42
2018-02-19T17:00:59.705Z,99432.92
2018-02-19T17:03:27.576Z,99431.46
2018-02-19T17:05:55.203Z,99440.77
2018-02-19T17:08:22.763Z,99437.08
2018-02-19T17:10:50.291Z,99424.66
2018-02-19T17:13:18.376Z,99398.67
2018-02-19T17:15:46.149Z,99435.06
2018-02-19T17:18:14.294Z,99437.16
2018-02-19T17:20:42.656Z,99436.25
2018-02-19T17:23:10.569Z,99439.00
2018-02-19T17:25:39.160Z,99433.48
2018-02-19T17:28:07.411Z,99430.05
2018-02-19T17:30:34.995Z,99426.66
2018-02-19T17:33:03.033Z,99425.19
2018-02-19T17:35:30.596Z,99430.55
2018-02-19T17:37:58.401Z,99434.52
2018-02-19T17:40:26.346Z,99441.55
2018-02-19T17:42:54.458Z,99433.27
2018-02-19T17:45:21.983Z,99435.44
2018-02-19T17:47:50.466Z,99424.31
2018-02-19T17:50:19.556Z,99424.40
2018-02-19T17:52:47.138Z,99427.45
2018-02-19T17:55:15.507Z,99431.39
2018-02-19T17:57:43.211Z,99425.82
2018-02-19T18:00:10.764Z,99422.23
2018-02-19T18:02:39.148Z,99423.53
2018-02-19T18:05:06.669Z,99421.38
2018-02-19T18:07:34.195Z,99409.25
2018-02-19T18:10:01.754Z,99406.58
2018-02-19T18:12:29.765Z,99408.45
2018-02-19T18:14:57.395Z,99407.56
2018-02-19T18:17:24.915Z,99413.48
2018-02-19T18:19:59.993Z,99417.87
2018-02-19T18:22:31.611Z,99417.16
2018-02-19T18:25:01.188Z,99413.64
2018-02-19T18:27:33.378Z,99417.29
2018-02-19T18:30:01.569Z,99410.30
2018-02-19T18:32:31.054Z,99408.84
2018-02-19T18:34:58.584Z,99406.62
2018-02-19T18:37:26.159Z,99407.96
2018-02-19T18:39:53.689Z,99418.25
2018-02-19T18:42:21.248Z,99410.76
2018-02-19T18:44:52.113Z,99403.36
2018-02-19T18:47:19.678Z,99401.81
2018-02-19T18:49:47.239Z,99410.59
2018-02-19T18:52:15.109Z,99392.19
2018-02-19T18:54:42.844Z,99402.09
2018-02-19T18:57:11.248Z,99401.66
2018-02-19T18:59:38.788Z,99395.41
2018-02-19T19:02:06.628Z,99397.84
2018-02-19T19:04:34.261Z,99393.27
2018-02-19T19:07:01.843Z,99397.63
2018-02-19T19:09:41.626Z,99393.56
2018-02-19T19:12:09.165Z,99397.84
2018-02-19T19:14:36.720Z,99400.38
2018-02-19T19:17:04.717Z,99406.83
2018-02-19T19:19:32.525Z,99398.08
2018-02-19T19:22:00.382Z,99408.98
2018-02-19T19:24:27.975Z,99407.21
2018-02-19T19:26:55.500Z,99400.91
2018-02-19T19:29:23.677Z,99396.61
2018-02-19T19:31:51.430Z,99400.66
2018-02-19T19:34:19.000Z,99394.59
2018-02-19T19:36:46.528Z,99399.08
2018-02-19T19:39:14.787Z,99410.58
2018-02-19T19:41:42.338Z,99413.45
2018-02-19T19:44:09.881Z,99409.00
2018-02-19T19:46:37.444Z,99410.78
2018-02-19T19:49:04.980Z,99406.66
2018-02-19T19:51:32.544Z,99399.17
2018-02-19T19:54:00.114Z,99382.91
2018-02-19T19:56:27.648Z,99389.69
2018-02-19T19:58:55.208Z,99396.30
2018-02-19T20:01:22.880Z,99394.27
2018-02-19T20:03:50.970Z,99381.77
2018-02-19T20:06:22.106Z,99381.05
2018-02-19T20:08:52.847Z,99386.86
2018-02-19T20:11:20.627Z,99377.03
2018-02-19T20:13:48.233Z,99375.27
2018-02-19T20:16:15.771Z,99383.77
2018-02-19T20:18:43.864Z,99382.97
2018-02-19T20:21:12.234Z,99386.02
2018-02-19T20:23:41.236Z,99394.26
2018-02-19T20:26:09.280Z,99398.03
2018-02-19T20:28:37.797Z,99403.40
2018-02-19T20:31:06.487Z,99398.22
2018-02-19T20:33:35.224Z,99399.17
2018-02-19T20:36:03.288Z,99388.34
2018-02-19T20:38:33.104Z,99380.19
2018-02-19T20:41:01.496Z,99373.61
2018-02-19T20:43:32.265Z,99380.12
2018-02-19T20:46:00.980Z,99374.17
2018-02-19T20:48:29.291Z,99368.17
2018-02-19T20:50:57.121Z,99367.25
2018-02-19T20:53:25.847Z,99383.33
2018-02-19T20:55:54.101Z,99382.11
2018-02-19T20:58:21.716Z,99381.34
2018-02-19T21:00:51.414Z,99383.05
2018-02-19T21:03:19.756Z,99382.93
2018-02-19T21:05:48.471Z,99378.50
2018-02-19T21:08:16.183Z,99376.07
2018-02-19T21:10:43.712Z,99369.83
2018-02-19T21:13:11.375Z,99367.28
2018-02-19T21:15:38.899Z,99370.52
2018-02-19T21:18:06.423Z,99359.66
2018-02-19T21:20:34.494Z,99353.69
2018-02-19T21:23:04.842Z,99354.61
2018-02-19T21:25:33.141Z,99362.17
2018-02-19T21:28:00.659Z,99349.92
2018-02-19T21:30:29.741Z,99351.72
2018-02-19T21:32:57.336Z,99350.91
2018-02-19T21:35:25.878Z,99355.07
2018-02-19T21:37:53.748Z,99346.54
2018-02-19T21:40:21.648Z,99353.63
2018-02-19T21:42:49.367Z,99353.20
2018-02-19T21:45:18.448Z,99345.73
2018-02-19T21:47:46.424Z,99334.16
2018-02-19T21:50:15.502Z,99335.08
2018-02-19T21:52:44.564Z,99350.53
2018-02-19T21:55:12.122Z,99345.44
2018-02-19T21:57:39.684Z,99331.52
2018-02-19T22:00:07.214Z,99344.85
2018-02-19T22:02:34.769Z,99338.94
2018-02-19T22:05:02.295Z,99340.28
2018-02-19T22:07:29.848Z,99331.53
2018-02-19T22:09:59.703Z,99337.47
2018-02-19T22:12:27.232Z,99336.67
2018-02-19T22:14:57.126Z,99332.18
2018-02-19T22:17:26.236Z,99350.30
2018-02-19T22:19:53.797Z,99342.34
2018-02-19T22:22:21.327Z,99330.96
2018-02-19T22:24:49.209Z,99339.08
2018-02-19T22:27:18.783Z,99328.91
2018-02-19T22:29:48.374Z,99334.80
2018-02-19T22:32:16.663Z,99331.34
2018-02-19T22:34:44.207Z,99316.41
2018-02-19T22:37:13.268Z,99320.80
2018-02-19T22:39:42.155Z,99325.75
2018-02-19T22:42:09.703Z,99330.16
2018-02-19T22:44:37.399Z,99335.89
2018-02-19T22:47:06.132Z,99337.57
2018-02-19T22:49:34.772Z,99328.63
2018-02-19T22:52:02.771Z,99333.01
2018-02-19T22:54:31.674Z,99333.19
2018-02-19T22:57:00.689Z,99327.14
2018-02-19T22:59:31.881Z,99322.38
2018-02-19T23:02:00.265Z,99317.16
2018-02-19T23:04:28.181Z,99313.23
2018-02-19T23:06:56.479Z,99324.59
2018-02-19T23:09:24.256Z,99324.45
2018-02-19T23:11:52.931Z,99321.47
2018-02-19T23:14:20.701Z,99328.45
2018-02-19T23:16:49.073Z,99334.81
2018-02-19T23:19:19.345Z,99328.59
2018-02-19T23:21:48.240Z,99334.92
2018-02-19T23:24:17.781Z,99320.52
2018-02-19T23:26:47.422Z,99304.22
2018-02-19T23:29:15.765Z,99341.55
2018-02-19T23:31:43.656Z,99335.03
2018-02-19T23:34:12.057Z,99335.59
2018-02-19T23:36:41.295Z,99346.77
2018-02-19T23:39:09.446Z,99342.61
2018-02-19T23:41:38.527Z,99336.56
2018-02-19T23:44:07.395Z,99328.11
2018-02-19T23:46:35.091Z,99334.69
2018-02-19T23:49:02.964Z,99326.23
2018-02-19T23:51:31.261Z,99322.02
2018-02-19T23:53:58.944Z,99319.59
2018-02-19T23:56:26.468Z,99316.88
2018-02-19T23:58:54.012Z,99314.53
